createdAt,value
2023-04-26T00:00:48.901Z,99636.44
2023-04-26T00:03:51.794Z,99633.38
2023-04-26T00:06:54.710Z,99634.06
2023-04-26T00:09:57.179Z,99601.41
2023-04-26T00:12:59.699Z,99621.16
2023-04-26T00:16:02.114Z,99648.44
2023-04-26T00:19:04.797Z,99647.72
2023-04-26T00:22:08.742Z,99653.59
2023-04-26T00:25:11.330Z,99657.84
2023-04-26T00:28:13.830Z,99647.59
2023-04-26T00:31:17.601Z,99632.69
2023-04-26T00:34:20.077Z,99629.47
2023-04-26T00:37:23.371Z,99639.50
2023-04-26T00:40:26.191Z,99648.72
2023-04-26T00:43:28.738Z,99655.09
2023-04-26T00:46:31.954Z,99669.81
2023-04-26T00:49:34.663Z,99671.94
2023-04-26T00:52:37.619Z,99677.03
2023-04-26T00:55:41.444Z,99681.59
2023-04-26T00:58:44.376Z,99647.19
2023-04-26T01:01:48.524Z,99661.81
2023-04-26T01:04:51.702Z,99669.09
2023-04-26T01:07:54.254Z,99673.97
2023-04-26T01:10:57.428Z,99643.75
2023-04-26T01:14:00.039Z,99653.50
2023-04-26T01:17:03.630Z,99681.03
2023-04-26T01:20:08.942Z,99650.00
2023-04-26T01:23:11.840Z,99650.72
2023-04-26T01:26:14.453Z,99678.19
2023-04-26T01:29:21.676Z,99672.44
2023-04-26T01:32:24.252Z,99625.28
2023-04-26T01:35:26.818Z,99683.50
2023-04-26T01:38:29.322Z,99655.09
2023-04-26T01:41:32.773Z,99681.59
2023-04-26T01:44:36.420Z,99667.13
2023-04-26T01:47:38.880Z,99688.63
2023-04-26T01:50:41.283Z,99634.13
2023-04-26T01:53:43.721Z,99669.56
2023-04-26T01:56:46.252Z,99681.97
2023-04-26T01:59:48.789Z,99686.47
2023-04-26T02:02:54.834Z,99676.06
2023-04-26T02:05:58.892Z,99683.09
2023-04-26T02:09:02.204Z,99680.97
2023-04-26T02:12:04.623Z,99664.22
2023-04-26T02:15:08.938Z,99699.13
2023-04-26T02:18:11.681Z,99693.91
2023-04-26T02:21:17.773Z,99698.53
2023-04-26T02:24:20.309Z,99693.09
2023-04-26T02:27:22.732Z,99646.59
2023-04-26T02:30:25.069Z,99697.47
2023-04-26T02:33:27.622Z,99700.59
2023-04-26T02:36:30.420Z,99693.38
2023-04-26T02:39:33.046Z,99661.94
2023-04-26T02:42:35.794Z,99681.34
2023-04-26T02:45:43.277Z,99688.47
2023-04-26T02:48:47.737Z,99657.38
2023-04-26T02:51:50.170Z,99687.16
2023-04-26T02:54:52.725Z,99692.56
2023-04-26T02:57:55.178Z,99701.22
2023-04-26T03:01:01.036Z,99693.72
2023-04-26T03:04:05.170Z,99695.59
2023-04-26T03:07:09.568Z,99673.34
2023-04-26T03:10:12.760Z,99683.66
2023-04-26T03:13:16.558Z,99677.63
2023-04-26T03:16:20.514Z,99706.94
2023-04-26T03:19:23.132Z,99685.25
2023-04-26T03:22:25.898Z,99713.34
2023-04-26T03:25:28.271Z,99683.63
2023-04-26T03:28:31.081Z,99721.84
2023-04-26T03:31:33.663Z,99720.41
2023-04-26T03:34:36.078Z,99719.44
2023-04-26T03:37:39.886Z,99728.63
2023-04-26T03:40:45.077Z,99686.47
2023-04-26T03:43:47.815Z,99718.50
2023-04-26T03:46:50.217Z,99745.44
2023-04-26T03:49:52.943Z,99743.66
2023-04-26T03:52:55.431Z,99726.44
2023-04-26T03:55:58.237Z,99756.75
2023-04-26T03:59:01.222Z,99763.41
2023-04-26T04:02:04.120Z,99736.66
2023-04-26T04:05:08.316Z,99767.44
2023-04-26T04:08:12.112Z,99766.56
2023-04-26T04:11:15.415Z,99770.69
2023-04-26T04:14:19.195Z,99751.19
2023-04-26T04:17:22.289Z,99783.09
2023-04-26T04:20:25.505Z,99776.75
2023-04-26T04:23:30.831Z,99782.28
2023-04-26T04:26:34.266Z,99791.78
2023-04-26T04:29:36.688Z,99762.63
2023-04-26T04:32:40.233Z,99795.66
2023-04-26T04:35:43.443Z,99797.75
2023-04-26T04:38:45.903Z,99805.94
2023-04-26T04:41:51.418Z,99812.63
2023-04-26T04:44:55.167Z,99806.72
2023-04-26T04:47:58.288Z,99784.75
2023-04-26T04:51:02.471Z,99820.09
2023-04-26T04:54:13.527Z,99802.31
2023-04-26T04:57:16.859Z,99831.47
2023-04-26T05:00:21.177Z,99797.81
2023-04-26T05:03:28.797Z,99825.34
2023-04-26T05:06:34.344Z,99805.13
2023-04-26T05:09:37.227Z,99819.06
2023-04-26T05:12:42.083Z,99819.84
2023-04-26T05:15:44.427Z,99815.03
2023-04-26T05:18:47.424Z,99825.88
2023-04-26T05:21:50.070Z,99845.88
2023-04-26T05:24:52.877Z,99841.31
2023-04-26T05:27:55.395Z,99834.09
2023-04-26T05:31:21.612Z,99859.09
2023-04-26T05:34:47.491Z,99859.75
2023-04-26T05:37:52.398Z,99863.78
2023-04-26T05:40:57.326Z,99840.94
2023-04-26T05:43:59.920Z,99846.41
2023-04-26T05:47:02.481Z,99843.13
2023-04-26T05:50:05.366Z,99835.91
2023-04-26T05:53:08.796Z,99857.00
2023-04-26T05:56:11.361Z,99883.72
2023-04-26T05:59:13.908Z,99862.88
2023-04-26T06:02:16.513Z,99863.66
2023-04-26T06:05:19.231Z,99879.94
2023-04-26T06:08:21.876Z,99880.16
2023-04-26T06:11:26.817Z,99861.09
2023-04-26T06:14:30.662Z,99863.59
2023-04-26T06:17:37.789Z,99873.44
2023-04-26T06:20:40.415Z,99873.06
2023-04-26T06:23:43.258Z,99878.16
2023-04-26T06:26:45.631Z,99879.09
2023-04-26T06:29:48.481Z,99914.63
2023-04-26T06:32:51.930Z,99889.00
2023-04-26T06:35:54.402Z,99916.38
2023-04-26T06:38:56.887Z,99889.28
2023-04-26T06:42:03.583Z,99894.84
2023-04-26T06:45:24.259Z,99922.78
2023-04-26T06:48:27.415Z,99871.09
2023-04-26T06:51:29.902Z,99903.88
2023-04-26T06:54:35.931Z,99927.00
2023-04-26T06:57:39.044Z,99929.31
2023-04-26T07:00:41.498Z,99926.81
2023-04-26T07:03:43.989Z,99924.13
2023-04-26T07:06:46.974Z,99935.78
2023-04-26T07:09:49.900Z,99906.78
2023-04-26T07:12:52.445Z,99924.59
2023-04-26T07:15:55.314Z,99946.63
2023-04-26T07:19:01.063Z,99948.34
2023-04-26T07:22:04.745Z,99929.03
2023-04-26T07:25:07.528Z,99941.84
2023-04-26T07:28:09.987Z,99953.91
2023-04-26T07:31:12.742Z,99961.91
2023-04-26T07:34:15.127Z,99934.16
2023-04-26T07:37:17.522Z,99963.31
2023-04-26T07:40:22.752Z,99947.59
2023-04-26T07:43:26.563Z,99983.31
2023-04-26T07:46:29.014Z,99969.09
2023-04-26T07:49:31.731Z,99976.41
2023-04-26T07:52:34.623Z,99967.16
2023-04-26T07:55:39.715Z,99984.16
2023-04-26T07:58:42.232Z,99971.97
2023-04-26T08:01:44.716Z,99978.00
2023-04-26T08:04:50.118Z,99985.47
2023-04-26T08:07:52.857Z,99943.13
2023-04-26T08:10:55.874Z,99959.19
2023-04-26T08:13:58.296Z,99966.78
2023-04-26T08:17:02.001Z,99964.16
2023-04-26T08:20:06.100Z,99990.25
2023-04-26T08:23:09.408Z,99964.13
2023-04-26T08:26:11.879Z,99991.75
2023-04-26T08:29:15.015Z,99970.91
2023-04-26T08:32:17.530Z,99969.75
2023-04-26T08:35:27.824Z,99999.34
2023-04-26T08:38:30.792Z,99974.78
2023-04-26T08:41:37.965Z,100001.19
2023-04-26T08:44:43.468Z,99985.31
2023-04-26T08:47:50.379Z,99977.88
2023-04-26T08:50:54.145Z,99992.00
2023-04-26T08:53:58.109Z,100001.38
2023-04-26T08:57:01.836Z,100018.25
2023-04-26T09:00:14.579Z,99984.28
2023-04-26T09:03:17.049Z,100010.88
2023-04-26T09:06:19.842Z,100011.06
2023-04-26T09:09:24.402Z,100023.78
2023-04-26T09:12:27.228Z,100016.88
2023-04-26T09:15:29.783Z,100022.03
2023-04-26T09:18:33.865Z,100024.88
2023-04-26T09:21:44.923Z,100004.88
2023-04-26T09:24:52.337Z,100018.34
2023-04-26T09:27:54.862Z,100004.16
2023-04-26T09:30:57.353Z,100013.50
2023-04-26T09:34:00.940Z,100009.38
2023-04-26T09:37:03.344Z,99993.47
2023-04-26T09:40:18.117Z,100023.94
2023-04-26T09:43:22.703Z,100028.66
2023-04-26T09:46:25.247Z,100010.81
2023-04-26T09:49:30.678Z,100024.94
2023-04-26T09:52:43.376Z,100009.41
2023-04-26T09:55:45.837Z,99997.75
2023-04-26T09:58:48.693Z,100027.69
2023-04-26T10:01:51.134Z,100011.81
2023-04-26T10:04:56.205Z,99992.84
2023-04-26T10:07:58.795Z,100003.78
2023-04-26T10:11:04.526Z,99999.75
2023-04-26T10:14:07.334Z,99998.78
2023-04-26T10:17:11.773Z,100011.16
2023-04-26T10:20:17.795Z,100022.56
2023-04-26T10:23:25.575Z,99998.06
2023-04-26T10:26:51.927Z,100019.56
2023-04-26T10:29:54.391Z,100027.50
2023-04-26T10:32:58.268Z,100019.44
2023-04-26T10:36:12.766Z,100023.47
2023-04-26T10:39:21.910Z,100015.34
2023-04-26T10:42:30.834Z,100002.69
2023-04-26T10:45:33.549Z,100025.13
2023-04-26T10:48:38.001Z,100024.28
2023-04-26T10:52:12.564Z,100019.25
2023-04-26T10:55:38.387Z,100014.72
2023-04-26T10:58:41.640Z,100015.91
2023-04-26T11:01:44.942Z,99999.38
2023-04-26T11:04:52.263Z,100016.94
2023-04-26T11:08:24.904Z,100023.25
2023-04-26T11:11:29.812Z,100023.66
2023-04-26T11:14:35.724Z,100013.16
2023-04-26T11:17:38.399Z,100000.06
2023-04-26T11:20:41.134Z,100002.34
2023-04-26T11:23:52.716Z,99992.09
2023-04-26T11:26:55.166Z,99994.75
2023-04-26T11:29:57.636Z,100024.56
2023-04-26T11:33:01.342Z,100028.81
2023-04-26T11:36:04.294Z,100004.16
2023-04-26T11:39:07.167Z,100004.25
2023-04-26T11:42:12.067Z,100035.50
2023-04-26T11:45:17.646Z,100032.91
2023-04-26T11:48:20.359Z,100018.84
2023-04-26T11:51:24.088Z,100028.75
2023-04-26T11:54:35.886Z,100022.66
2023-04-26T11:57:41.075Z,99993.47
2023-04-26T12:01:00.449Z,100012.19
2023-04-26T12:04:03.041Z,100031.13
2023-04-26T12:07:05.664Z,100032.59
2023-04-26T12:10:17.971Z,100012.97
2023-04-26T12:13:21.063Z,100010.34
2023-04-26T12:16:26.600Z,100025.88
2023-04-26T12:19:40.945Z,100014.75
2023-04-26T12:23:16.959Z,100006.25
2023-04-26T12:26:20.551Z,100047.13
2023-04-26T12:29:23.215Z,100036.63
2023-04-26T12:32:25.810Z,100028.13
2023-04-26T12:35:28.239Z,100005.72
2023-04-26T12:38:30.874Z,100031.84
2023-04-26T12:41:33.933Z,100025.31
2023-04-26T12:44:36.680Z,100031.16
2023-04-26T12:47:39.628Z,100032.34
2023-04-26T12:50:42.392Z,100004.88
2023-04-26T12:53:44.776Z,100014.06
2023-04-26T12:56:48.596Z,100032.34
2023-04-26T12:59:51.057Z,100034.16
2023-04-26T13:02:53.608Z,100044.97
2023-04-26T13:05:56.146Z,100038.91
2023-04-26T13:08:58.853Z,100041.97
2023-04-26T13:12:01.264Z,100039.34
2023-04-26T13:15:04.222Z,100028.69
2023-04-26T13:18:06.743Z,100046.19
2023-04-26T13:21:09.267Z,100043.03
2023-04-26T13:24:11.912Z,100021.53
2023-04-26T13:27:14.622Z,100034.31
2023-04-26T13:30:18.371Z,100015.06
2023-04-26T13:33:21.473Z,100041.53
2023-04-26T13:36:24.062Z,100047.69
2023-04-26T13:39:28.784Z,100040.78
2023-04-26T13:42:32.547Z,100036.19
2023-04-26T13:45:36.038Z,100015.44
2023-04-26T13:48:38.473Z,100050.00
2023-04-26T13:51:41.786Z,100049.06
2023-04-26T13:54:44.218Z,100058.72
2023-04-26T13:57:46.725Z,100057.44
2023-04-26T14:00:49.311Z,100023.91
2023-04-26T14:03:54.226Z,100058.88
2023-04-26T14:06:58.633Z,100047.22
2023-04-26T14:10:01.436Z,100070.19
2023-04-26T14:13:04.279Z,100046.75
2023-04-26T14:16:07.126Z,100068.75
2023-04-26T14:19:09.626Z,100068.22
2023-04-26T14:22:13.054Z,100068.38
2023-04-26T14:25:15.850Z,100056.03
2023-04-26T14:28:18.574Z,100071.91
2023-04-26T14:31:22.660Z,100071.56
2023-04-26T14:34:26.323Z,100077.59
2023-04-26T14:37:28.875Z,100082.38
2023-04-26T14:40:31.969Z,100082.94
2023-04-26T14:43:34.472Z,100081.66
2023-04-26T14:46:37.432Z,100082.09
2023-04-26T14:49:39.790Z,100059.25
2023-04-26T14:52:42.276Z,100084.50
2023-04-26T14:55:44.731Z,100061.44
2023-04-26T14:58:47.131Z,100090.91
2023-04-26T15:01:50.247Z,100063.50
2023-04-26T15:04:52.966Z,100102.75
2023-04-26T15:07:55.554Z,100057.50
2023-04-26T15:10:58.041Z,100074.28
2023-04-26T15:14:00.544Z,100073.34
2023-04-26T15:17:03.110Z,100098.03
2023-04-26T15:20:06.458Z,100068.53
2023-04-26T15:23:09.027Z,100097.25
2023-04-26T15:26:11.622Z,100120.66
2023-04-26T15:29:14.241Z,100105.03
2023-04-26T15:32:16.674Z,100115.22
2023-04-26T15:35:19.163Z,100115.41
2023-04-26T15:38:22.066Z,100110.78
2023-04-26T15:41:24.474Z,100124.22
2023-04-26T15:44:26.963Z,100121.13
2023-04-26T15:47:29.441Z,100126.50
2023-04-26T15:50:34.362Z,100094.81
2023-04-26T15:53:41.346Z,100121.69
2023-04-26T15:56:48.598Z,100103.81
2023-04-26T15:59:51.244Z,100133.22
2023-04-26T16:02:54.027Z,100134.50
2023-04-26T16:05:56.613Z,100138.75
2023-04-26T16:09:02.232Z,100142.94
2023-04-26T16:12:05.599Z,100117.28
2023-04-26T16:15:12.203Z,100125.41
2023-04-26T16:18:14.765Z,100101.03
2023-04-26T16:21:17.346Z,100146.69
2023-04-26T16:24:20.166Z,100156.25
2023-04-26T16:27:22.625Z,100130.63
2023-04-26T16:30:25.458Z,100163.56
2023-04-26T16:33:28.098Z,100161.66
2023-04-26T16:36:31.583Z,100146.91
2023-04-26T16:39:36.025Z,100158.16
2023-04-26T16:42:42.074Z,100157.47
2023-04-26T16:45:44.517Z,100168.94
2023-04-26T16:48:47.561Z,100153.78
2023-04-26T16:51:56.375Z,100177.91
2023-04-26T16:54:59.283Z,100171.00
2023-04-26T16:58:01.980Z,100182.81
2023-04-26T17:01:04.810Z,100206.34
2023-04-26T17:04:08.230Z,100211.38
2023-04-26T17:07:12.932Z,100196.50
2023-04-26T17:10:15.376Z,100230.34
2023-04-26T17:13:18.016Z,100212.78
2023-04-26T17:16:21.037Z,100217.44
2023-04-26T17:19:24.208Z,100243.91
2023-04-26T17:22:26.766Z,100251.38
2023-04-26T17:25:29.174Z,100258.25
2023-04-26T17:28:33.034Z,100234.81
2023-04-26T17:31:35.499Z,100247.44
2023-04-26T17:34:38.804Z,100260.19
2023-04-26T17:37:46.260Z,100252.44
2023-04-26T17:40:53.626Z,100274.97
2023-04-26T17:43:56.185Z,100276.50
2023-04-26T17:46:58.508Z,100287.06
2023-04-26T17:50:00.991Z,100266.25
2023-04-26T17:53:05.453Z,100277.25
2023-04-26T17:56:10.032Z,100270.88
2023-04-26T17:59:13.019Z,100253.84
2023-04-26T18:02:15.906Z,100309.66
2023-04-26T18:05:18.541Z,100286.88
2023-04-26T18:08:21.467Z,100312.19
2023-04-26T18:11:24.135Z,100319.97
2023-04-26T18:14:27.947Z,100299.28
2023-04-26T18:17:30.431Z,100316.25
2023-04-26T18:20:35.746Z,100296.88
2023-04-26T18:23:38.701Z,100297.50
2023-04-26T18:26:41.528Z,100286.59
2023-04-26T18:29:44.212Z,100343.03
2023-04-26T18:32:47.044Z,100325.72
2023-04-26T18:35:50.498Z,100348.31
2023-04-26T18:38:53.040Z,100330.69
2023-04-26T18:41:55.408Z,100330.63
2023-04-26T18:44:58.034Z,100332.03
2023-04-26T18:48:00.721Z,100304.72
2023-04-26T18:51:04.077Z,100350.66
2023-04-26T18:54:06.499Z,100335.81
2023-04-26T18:57:10.703Z,100360.66
2023-04-26T19:00:14.161Z,100372.56
2023-04-26T19:03:17.287Z,100367.84
2023-04-26T19:06:20.190Z,100370.63
2023-04-26T19:09:23.075Z,100349.88
2023-04-26T19:12:26.429Z,100377.56
2023-04-26T19:15:29.443Z,100362.19
2023-04-26T19:18:32.406Z,100295.47
2023-04-26T19:21:35.165Z,100374.09
2023-04-26T19:24:38.707Z,100376.81
2023-04-26T19:27:41.522Z,100363.41
2023-04-26T19:30:44.347Z,100337.13
2023-04-26T19:33:47.038Z,100388.53
2023-04-26T19:36:50.313Z,100391.25
2023-04-26T19:39:52.988Z,100391.72
2023-04-26T19:42:55.420Z,100397.00
2023-04-26T19:45:58.384Z,100377.75
2023-04-26T19:49:01.003Z,100384.88
2023-04-26T19:52:03.523Z,100401.72
2023-04-26T19:55:06.348Z,100414.38
2023-04-26T19:58:12.952Z,100406.41
2023-04-26T20:01:16.303Z,100406.47
2023-04-26T20:04:19.407Z,100382.66
2023-04-26T20:07:22.427Z,100380.78
2023-04-26T20:10:25.396Z,100397.22
2023-04-26T20:13:28.881Z,100410.13
2023-04-26T20:16:31.539Z,100390.25
2023-04-26T20:19:34.258Z,100390.97
2023-04-26T20:22:37.140Z,100387.53
2023-04-26T20:25:39.789Z,100374.53
2023-04-26T20:28:42.726Z,100415.75
2023-04-26T20:31:45.567Z,100401.72
2023-04-26T20:34:48.414Z,100337.81
2023-04-26T20:37:51.343Z,100424.16
2023-04-26T20:40:54.189Z,100414.31
2023-04-26T20:43:56.678Z,100420.19
2023-04-26T20:46:59.123Z,100427.00
2023-04-26T20:50:01.547Z,100412.66
2023-04-26T20:53:07.241Z,100440.53
2023-04-26T20:56:09.791Z,100442.59
2023-04-26T20:59:12.519Z,100439.00
2023-04-26T21:02:15.947Z,100441.13
2023-04-26T21:05:18.463Z,100443.25
2023-04-26T21:08:20.937Z,100422.63
2023-04-26T21:11:23.489Z,100454.94
2023-04-26T21:14:26.241Z,100458.41
2023-04-26T21:17:28.643Z,100444.94
2023-04-26T21:20:31.095Z,100404.66
2023-04-26T21:23:33.968Z,100448.75
2023-04-26T21:26:36.390Z,100441.16
2023-04-26T21:29:39.190Z,100457.91
2023-04-26T21:32:41.909Z,100437.88
2023-04-26T21:35:44.311Z,100442.16
2023-04-26T21:38:46.949Z,100449.66
2023-04-26T21:41:49.936Z,100444.97
2023-04-26T21:44:52.614Z,100457.22
2023-04-26T21:47:54.972Z,100482.56
2023-04-26T21:50:57.651Z,100491.91
2023-04-26T21:54:00.053Z,100469.22
2023-04-26T21:57:06.588Z,100482.75
2023-04-26T22:00:11.969Z,100511.47
2023-04-26T22:03:18.573Z,100507.34
2023-04-26T22:06:21.530Z,100434.06
2023-04-26T22:09:24.296Z,100492.56
2023-04-26T22:12:27.632Z,100498.34
2023-04-26T22:15:30.150Z,100507.97
2023-04-26T22:18:32.602Z,100527.63
2023-04-26T22:21:35.090Z,100502.75
2023-04-26T22:24:37.564Z,100532.81
2023-04-26T22:27:39.997Z,100534.56
2023-04-26T22:30:42.661Z,100537.59
2023-04-26T22:33:45.073Z,100519.25
2023-04-26T22:36:47.840Z,100487.50
2023-04-26T22:39:50.398Z,100534.13
2023-04-26T22:42:53.917Z,100541.97
2023-04-26T22:45:56.380Z,100491.31
2023-04-26T22:48:58.785Z,100536.97
2023-04-26T22:52:07.997Z,100522.53
2023-04-26T22:55:14.348Z,100550.97
2023-04-26T22:58:17.922Z,100551.03
2023-04-26T23:01:20.513Z,100548.66
2023-04-26T23:04:22.934Z,100525.00
2023-04-26T23:07:25.415Z,100554.09
2023-04-26T23:10:28.662Z,100553.31
2023-04-26T23:13:31.043Z,100545.22
2023-04-26T23:16:33.871Z,100536.06
2023-04-26T23:19:36.622Z,100559.91
2023-04-26T23:22:41.848Z,100528.31
2023-04-26T23:25:44.338Z,100526.19
2023-04-26T23:28:46.839Z,100563.59
2023-04-26T23:31:49.460Z,100537.31
2023-04-26T23:34:52.391Z,100559.50
2023-04-26T23:37:54.974Z,100559.44
2023-04-26T23:40:57.528Z,100572.28
2023-04-26T23:43:59.923Z,100557.88
2023-04-26T23:47:02.401Z,100528.22
2023-04-26T23:50:05.242Z,100481.69
2023-04-26T23:53:08.468Z,100539.44
2023-04-26T23:56:10.955Z,100553.28
2023-04-26T23:59:14.276Z,100562.72
